Time;durP1;ratioP1;P1;durP2;ratioP2;P2;SDS_P1;SDS_P2;PMS_P1;PMS_P2;Temp;Humidity;BMP_temperature;BMP_pressure;BME280_temperature;BME280_humidity;BME280_pressure;Samples;Min_cycle;Max_cycle;Signal;HPM_P1;HPM_P2
2022/05/03 00:00:06;;;;;;;;;;;;;;;12.53;42.65;101436.34;5018056;28;20315;-53
2022/05/03 00:02:49;;;;;;;;;;;;;;;12.54;42.58;101432.78;5022063;28;20386;-56
2022/05/03 00:05:14;;;;;;;;;;;;;;;12.53;42.74;101436.34;5014047;28;20384;-55
2022/05/03 00:08:06;;;;;;;;;;;;;;;12.48;42.74;101445.38;5019469;28;19953;-55
2022/05/03 00:10:51;;;;;;;;;;;;;;;12.44;42.93;101443.84;4995587;28;19913;-53
2022/05/03 00:13:24;;;;;;;;;;;;;;;12.41;42.89;101438.75;5027547;28;20373;-52
2022/05/03 00:15:50;;;;;;;;;;;;;;;12.32;43.04;101439.25;5021442;28;20408;-55
2022/05/03 00:18:15;;;;;;;;;;;;;;;12.19;43.16;101433.78;5026916;28;19925;-50
2022/05/03 00:20:42;;;;;;;;;;;;;;;12.14;43.43;101431.38;5028848;28;19917;-53
2022/05/03 00:23:07;;;;;;;;;;;;;;;12.14;43.42;101436.66;5025818;28;19913;-54
2022/05/03 00:25:33;;;;;;;;;;;;;;;12.17;43.32;101425.94;5025523;28;19936;-53
2022/05/03 00:28:00;;;;;;;;;;;;;;;12.17;43.58;101423.31;5021847;28;20062;-58
2022/05/03 00:30:25;;;;;;;;;;;;;;;12.17;43.31;101428.59;5027554;28;20399;-54
2022/05/03 00:32:51;;;;;;;;;;;;;;;12.18;43.55;101427.63;5021280;28;19913;-53
2022/05/03 00:35:17;;;;;;;;;;;;;;;12.18;43.32;101434.69;5021531;28;19928;-56
2022/05/03 00:37:42;;;;;;;;;;;;;;;12.14;43.54;101434.03;5024892;28;19913;-51
2022/05/03 00:40:10;;;;;;;;;;;;;;;12.12;43.57;101430.63;5020342;28;19921;-53
2022/05/03 00:42:46;;;;;;;;;;;;;;;12.13;43.67;101421.75;5024970;28;19928;-60
2022/05/03 00:45:46;;;;;;;;;;;;;;;12.12;43.70;101433.25;5023681;28;19925;-56
2022/05/03 00:48:12;;;;;;;;;;;;;;;12.06;43.78;101428.28;4959241;28;20095;-56
2022/05/03 00:50:39;;;;;;;;;;;;;;;12.02;43.99;101426.75;5011327;28;20395;-51
2022/05/03 00:53:20;;;;;;;;;;;;;;;12.00;43.83;101424.19;5027555;28;19956;-50
2022/05/03 00:56:04;;;;;;;;;;;;;;;11.97;43.90;101424.31;5028362;28;19912;-55
2022/05/03 00:58:48;;;;;;;;;;;;;;;11.89;44.05;101429.16;5024046;28;19920;-54
2022/05/03 01:01:25;;;;;;;;;;;;;;;11.70;44.42;101429.25;5025152;28;19921;-51
2022/05/03 01:04:12;;;;;;;;;;;;;;;11.53;44.78;101438.00;5006473;28;20403;-53
2022/05/03 01:06:49;;;;;;;;;;;;;;;11.44;44.72;101431.41;5021347;28;19913;-53
2022/05/03 01:09:16;;;;;;;;;;;;;;;11.44;44.84;101431.41;5024807;28;19924;-53
2022/05/03 01:11:41;;;;;;;;;;;;;;;11.46;44.93;101428.72;5022605;28;20012;-55
2022/05/03 01:14:25;;;;;;;;;;;;;;;11.52;44.71;101433.66;5024164;28;20332;-55
2022/05/03 01:17:04;;;;;;;;;;;;;;;11.58;44.73;101433.38;5029379;28;20407;-58
2022/05/03 01:19:35;;;;;;;;;;;;;;;11.64;44.63;101432.19;5023955;28;19912;-54
2022/05/03 01:22:07;;;;;;;;;;;;;;;11.69;44.63;101430.19;5025447;28;19956;-53
2022/05/03 01:24:51;;;;;;;;;;;;;;;11.73;44.33;101426.44;5020100;28;19924;-50
2022/05/03 01:27:16;;;;;;;;;;;;;;;11.79;44.64;101427.94;5024451;28;19909;-58
2022/05/03 01:29:44;;;;;;;;;;;;;;;11.82;44.64;101427.75;5020980;28;19928;-56
2022/05/03 01:32:09;;;;;;;;;;;;;;;11.83;44.68;101422.41;5022697;28;20012;-58
2022/05/03 01:34:36;;;;;;;;;;;;;;;11.85;44.54;101419.69;5020109;28;20031;-53
2022/05/03 01:37:13;;;;;;;;;;;;;;;11.85;44.55;101420.56;5024674;28;19920;-52
2022/05/03 01:39:45;;;;;;;;;;;;;;;11.86;44.65;101416.13;5024338;28;20308;-52
2022/05/03 01:42:22;;;;;;;;;;;;;;;11.86;44.70;101411.72;5024053;28;19924;-54
2022/05/03 01:44:53;;;;;;;;;;;;;;;11.85;44.83;101419.69;5023064;28;19917;-57
2022/05/03 01:47:30;;;;;;;;;;;;;;;11.85;44.62;101404.75;5021117;28;19994;-53
2022/05/03 01:50:20;;;;;;;;;;;;;;;11.85;44.71;101409.16;5018868;28;19909;-52
2022/05/03 01:52:55;;;;;;;;;;;;;;;11.83;44.69;101405.72;5025713;28;19920;-53
2022/05/03 01:55:24;;;;;;;;;;;;;;;11.79;44.86;101402.41;5024515;28;20003;-56
2022/05/03 01:58:08;;;;;;;;;;;;;;;11.79;44.96;101402.41;5022496;28;19936;-53
2022/05/03 02:00:34;;;;;;;;;;;;;;;11.77;44.96;101411.34;5018193;28;19921;-56
2022/05/03 02:03:12;;;;;;;;;;;;;;;11.76;44.82;101410.47;5019463;28;19921;-58
2022/05/03 02:05:37;;;;;;;;;;;;;;;11.75;44.96;101408.75;5018692;28;20004;-58
2022/05/03 02:08:03;;;;;;;;;;;;;;;11.74;45.12;101412.34;5007976;28;19913;-59
2022/05/03 02:10:28;;;;;;;;;;;;;;;11.74;44.88;101407.94;5025063;28;19924;-58
2022/05/03 02:12:57;;;;;;;;;;;;;;;11.73;45.04;101405.34;5024373;28;19913;-54
2022/05/03 02:15:38;;;;;;;;;;;;;;;11.71;45.18;101404.59;5018530;28;20056;-57
2022/05/03 02:18:05;;;;;;;;;;;;;;;11.67;45.21;101401.25;5019883;28;19913;-56
2022/05/03 02:20:49;;;;;;;;;;;;;;;11.64;45.38;101400.56;5014125;28;20288;-58
2022/05/03 02:23:33;;;;;;;;;;;;;;;11.63;45.28;101405.00;5019707;28;20372;-57
2022/05/03 02:26:13;;;;;;;;;;;;;;;11.63;45.44;101396.22;5024644;28;19909;-56
2022/05/03 02:28:41;;;;;;;;;;;;;;;11.63;45.23;101401.50;5025223;28;20304;-57
2022/05/03 02:31:08;;;;;;;;;;;;;;;11.62;45.38;101397.16;5019239;28;20335;-56
2022/05/03 02:34:00;;;;;;;;;;;;;;;11.58;45.25;101401.75;5023615;28;19924;-57
2022/05/03 02:36:27;;;;;;;;;;;;;;;11.56;45.39;101393.94;5019160;28;20065;-58
2022/05/03 02:38:58;;;;;;;;;;;;;;;11.55;45.43;101392.22;5021010;28;19959;-57
2022/05/03 02:41:24;;;;;;;;;;;;;;;11.54;45.41;101395.78;5020654;28;20352;-57
2022/05/03 02:43:50;;;;;;;;;;;;;;;11.53;45.45;101394.06;5009857;28;19943;-58
2022/05/03 02:46:23;;;;;;;;;;;;;;;11.51;45.58;101395.06;5005345;28;19921;-58
2022/05/03 02:49:18;;;;;;;;;;;;;;;11.49;45.62;101391.69;5020814;28;19912;-58
2022/05/03 02:52:09;;;;;;;;;;;;;;;11.46;45.59;101397.94;5003938;28;19913;-58
2022/05/03 02:54:47;;;;;;;;;;;;;;;11.47;45.82;101398.81;5019565;28;19956;-58
2022/05/03 02:57:27;;;;;;;;;;;;;;;11.49;45.69;101391.69;5019710;28;20814;-54
2022/05/03 03:02:43;;;;;;;;;;;;;;;11.47;45.78;101399.66;5023007;28;20296;-58
2022/05/03 03:05:09;;;;;;;;;;;;;;;11.48;45.78;101400.53;5018603;28;19949;-58
2022/05/03 03:07:43;;;;;;;;;;;;;;;11.47;45.99;101404.91;5023786;28;19959;-58
2022/05/03 03:10:12;;;;;;;;;;;;;;;11.44;46.00;101400.66;5019577;28;19920;-57
2022/05/03 03:13:13;;;;;;;;;;;;;;;11.45;46.01;101401.50;5020163;28;19917;-58
2022/05/03 03:15:40;;;;;;;;;;;;;;;11.45;46.15;101390.97;4980326;28;19922;-56
2022/05/03 03:18:11;;;;;;;;;;;;;;;11.47;46.12;101393.53;5011886;28;19975;-58
2022/05/03 03:20:42;;;;;;;;;;;;;;;11.47;46.20;101393.53;5022673;28;19925;-58
2022/05/03 03:23:08;;;;;;;;;;;;;;;11.48;46.11;101396.09;5021995;28;19964;-58
2022/05/03 03:25:34;;;;;;;;;;;;;;;11.47;46.18;101394.38;5022443;28;21981;-58
2022/05/03 03:28:01;;;;;;;;;;;;;;;11.48;46.37;101397.88;5021955;28;20032;-56
2022/05/03 03:30:27;;;;;;;;;;;;;;;11.50;46.32;101394.22;5027261;28;20008;-58
2022/05/03 03:32:53;;;;;;;;;;;;;;;11.50;46.43;101398.63;5024543;28;20365;-59
2022/05/03 03:35:19;;;;;;;;;;;;;;;11.51;46.37;101395.94;5018390;28;19921;-57
2022/05/03 03:37:46;;;;;;;;;;;;;;;11.51;46.56;101395.94;5023224;28;19999;-58
2022/05/03 03:40:13;;;;;;;;;;;;;;;11.49;46.41;101395.16;5015679;28;19917;-57
2022/05/03 03:42:39;;;;;;;;;;;;;;;11.48;46.77;101396.09;5022715;28;19928;-58
2022/05/03 03:45:07;;;;;;;;;;;;;;;11.46;46.61;101391.84;5024383;28;19944;-58
2022/05/03 03:47:36;;;;;;;;;;;;;;;11.44;46.66;101392.75;5005319;28;20011;-58
2022/05/03 03:50:02;;;;;;;;;;;;;;;11.45;46.78;101390.97;5023774;28;20307;-56
2022/05/03 03:52:27;;;;;;;;;;;;;;;11.46;46.88;101395.31;5027917;28;20370;-57
2022/05/03 03:54:54;;;;;;;;;;;;;;;11.45;46.90;101396.25;5030608;28;19917;-57
2022/05/03 03:57:20;;;;;;;;;;;;;;;11.43;47.05;101392.81;5021515;28;19943;-57
2022/05/03 03:59:46;;;;;;;;;;;;;;;11.40;47.01;101399.13;5025348;28;19921;-57
2022/05/03 04:02:11;;;;;;;;;;;;;;;11.36;47.05;101405.47;5014863;28;19920;-58
2022/05/03 04:04:37;;;;;;;;;;;;;;;11.31;47.05;101406.63;5026751;28;19924;-58
2022/05/03 04:07:03;;;;;;;;;;;;;;;11.27;47.22;101404.13;5018547;28;19943;-57
2022/05/03 04:09:29;;;;;;;;;;;;;;;11.24;47.37;101409.59;5025927;28;19912;-57
2022/05/03 04:11:55;;;;;;;;;;;;;;;11.21;47.31;101414.13;5024792;28;20373;-58
2022/05/03 04:14:20;;;;;;;;;;;;;;;11.17;47.33;101413.44;5022654;28;19931;-58
2022/05/03 04:16:46;;;;;;;;;;;;;;;11.17;47.51;101413.44;5026353;28;19917;-58
2022/05/03 04:19:11;;;;;;;;;;;;;;;11.16;47.54;101417.00;5027027;28;19917;-57
2022/05/03 04:21:37;;;;;;;;;;;;;;;11.17;47.61;101416.06;5021080;28;19975;-50
2022/05/03 04:24:02;;;;;;;;;;;;;;;11.17;47.65;101417.88;5027464;28;19921;-51
2022/05/03 04:26:27;;;;;;;;;;;;;;;11.18;47.70;101425.69;5020979;28;19917;-52
2022/05/03 04:28:56;;;;;;;;;;;;;;;11.18;47.74;101424.84;5019721;28;19913;-58
2022/05/03 04:31:26;;;;;;;;;;;;;;;11.20;47.75;101428.22;5024697;28;19917;-52
2022/05/03 04:33:51;;;;;;;;;;;;;;;11.17;47.84;101429.25;5017988;28;19940;-52
2022/05/03 04:36:17;;;;;;;;;;;;;;;11.16;47.89;101426.69;5015408;28;19929;-52
2022/05/03 04:38:42;;;;;;;;;;;;;;;11.16;47.99;101424.91;5022173;28;19913;-54
2022/05/03 04:41:07;;;;;;;;;;;;;;;11.18;47.91;101423.06;5020771;28;19928;-52
2022/05/03 04:43:33;;;;;;;;;;;;;;;11.21;47.97;101428.16;5026516;28;19925;-55
2022/05/03 04:45:59;;;;;;;;;;;;;;;11.21;47.95;101433.44;5020096;28;22118;-57
2022/05/03 04:48:24;;;;;;;;;;;;;;;11.22;47.97;101429.00;5020947;28;20380;-57
2022/05/03 04:50:49;;;;;;;;;;;;;;;11.23;47.95;101436.84;5018582;28;19921;-54
2022/05/03 04:53:16;;;;;;;;;;;;;;;11.27;48.01;101442.81;4999967;28;19920;-55
2022/05/03 04:55:41;;;;;;;;;;;;;;;11.29;48.03;101439.16;5020903;28;19916;-57
2022/05/03 04:58:07;;;;;;;;;;;;;;;11.33;48.03;101441.66;5017227;28;19920;-56
2022/05/03 05:00:32;;;;;;;;;;;;;;;11.37;48.00;101440.59;5020313;28;19925;-57
2022/05/03 05:02:58;;;;;;;;;;;;;;;11.36;47.88;101442.34;5022313;28;19921;-57
2022/05/03 05:05:23;;;;;;;;;;;;;;;11.38;47.95;101448.41;5012054;28;19924;-59
2022/05/03 05:07:48;;;;;;;;;;;;;;;11.41;47.91;101447.41;5019174;28;19960;-59
2022/05/03 05:10:23;;;;;;;;;;;;;;;11.43;48.00;101449.03;5015394;28;20110;-55
2022/05/03 05:12:48;;;;;;;;;;;;;;;11.47;47.81;101447.09;5013006;28;20106;-53
2022/05/03 05:15:14;;;;;;;;;;;;;;;11.50;47.75;101444.31;5016824;28;20313;-53
2022/05/03 05:17:39;;;;;;;;;;;;;;;11.53;47.64;101441.53;5019651;28;20015;-54
2022/05/03 05:20:05;;;;;;;;;;;;;;;11.58;47.67;101450.03;5012315;28;19921;-55
2022/05/03 05:22:30;;;;;;;;;;;;;;;11.61;47.44;101445.53;5021831;28;19921;-56
2022/05/03 05:24:55;;;;;;;;;;;;;;;11.62;47.23;101444.59;5003764;28;19916;-57
2022/05/03 05:27:21;;;;;;;;;;;;;;;11.65;47.17;101445.28;5018847;28;19925;-57
2022/05/03 05:29:46;;;;;;;;;;;;;;;11.68;47.13;101446.94;5006960;28;20278;-57
2022/05/03 05:32:11;;;;;;;;;;;;;;;11.65;47.00;101452.38;5015335;28;19952;-57
2022/05/03 05:34:36;;;;;;;;;;;;;;;11.58;47.08;101450.03;5024614;28;19940;-54
2022/05/03 05:37:02;;;;;;;;;;;;;;;11.55;46.94;101444.06;5028787;28;20004;-56
2022/05/03 05:39:27;;;;;;;;;;;;;;;11.51;47.15;101448.66;5008815;28;19913;-52
2022/05/03 05:41:56;;;;;;;;;;;;;;;11.54;47.11;101447.63;5027197;28;19991;-57
2022/05/03 05:44:22;;;;;;;;;;;;;;;11.59;46.96;101441.19;5026151;28;19996;-49
2022/05/03 05:46:47;;;;;;;;;;;;;;;11.62;46.98;101448.13;5025057;28;20059;-53
2022/05/03 05:49:13;;;;;;;;;;;;;;;11.63;46.92;101451.59;5024798;28;19932;-52
2022/05/03 05:51:38;;;;;;;;;;;;;;;11.59;46.98;101457.00;5026752;28;19917;-52
2022/05/03 05:54:04;;;;;;;;;;;;;;;11.59;46.99;101457.00;5021862;28;20274;-56
2022/05/03 05:56:29;;;;;;;;;;;;;;;11.62;46.99;101455.16;5029454;28;20004;-50
2022/05/03 05:58:54;;;;;;;;;;;;;;;11.62;47.14;101455.16;5026685;28;19913;-52
2022/05/03 06:01:24;;;;;;;;;;;;;;;11.69;46.81;101461.81;5030007;28;19916;-52
2022/05/03 06:03:49;;;;;;;;;;;;;;;11.75;46.78;101456.22;5027741;28;19991;-50
2022/05/03 06:06:14;;;;;;;;;;;;;;;11.79;46.89;101468.31;5030904;28;20007;-50
2022/05/03 06:08:39;;;;;;;;;;;;;;;11.82;46.88;101465.53;5025648;28;20467;-52
2022/05/03 06:11:05;;;;;;;;;;;;;;;11.88;46.70;101469.63;5030826;28;19917;-51
2022/05/03 06:13:30;;;;;;;;;;;;;;;11.97;46.61;101465.69;5030891;28;20020;-53
2022/05/03 06:16:05;;;;;;;;;;;;;;;12.01;46.38;101467.25;5027950;28;19919;-50
2022/05/03 06:18:30;;;;;;;;;;;;;;;12.04;46.34;101467.06;5029089;28;19928;-51
2022/05/03 06:20:56;;;;;;;;;;;;;;;12.07;46.35;101464.28;5020478;28;19921;-49
2022/05/03 06:23:21;;;;;;;;;;;;;;;12.14;46.22;101470.97;5022160;28;20364;-49
2022/05/03 06:25:47;;;;;;;;;;;;;;;12.19;46.15;101468.06;5029764;28;19920;-53
2022/05/03 06:28:12;;;;;;;;;;;;;;;12.14;46.25;101476.22;5025932;28;19968;-49
2022/05/03 06:30:38;;;;;;;;;;;;;;;12.07;46.26;101469.56;5026942;28;19917;-49
2022/05/03 06:33:04;;;;;;;;;;;;;;;12.03;46.31;101475.91;5029607;28;19998;-52
2022/05/03 06:35:29;;;;;;;;;;;;;;;11.97;46.38;101470.94;5026457;28;19970;-53
2022/05/03 06:37:55;;;;;;;;;;;;;;;11.96;46.35;101472.72;5029627;28;19999;-55
2022/05/03 06:40:20;;;;;;;;;;;;;;;11.97;46.38;101470.94;5021739;28;19936;-50
2022/05/03 06:42:45;;;;;;;;;;;;;;;12.00;46.51;101484.00;5025053;28;19920;-56
2022/05/03 06:45:11;;;;;;;;;;;;;;;12.08;46.33;101473.91;5023984;28;19964;-53
2022/05/03 06:47:36;;;;;;;;;;;;;;;12.20;46.17;101473.25;5024466;28;19972;-50
2022/05/03 06:50:02;;;;;;;;;;;;;;;12.31;46.06;101475.31;5022842;28;19917;-51
2022/05/03 06:52:27;;;;;;;;;;;;;;;12.39;45.79;101477.56;5031191;28;19913;-49
2022/05/03 06:54:53;;;;;;;;;;;;;;;12.43;45.71;101471.19;5033012;28;20381;-53
2022/05/03 06:57:18;;;;;;;;;;;;;;;12.48;45.41;101471.78;5021188;28;19917;-53
2022/05/03 06:59:44;;;;;;;;;;;;;;;12.52;45.44;101471.59;5028082;28;19924;-53
2022/05/03 07:02:09;;;;;;;;;;;;;;;12.59;45.47;101473.00;5026663;28;19940;-51
2022/05/03 07:04:34;;;;;;;;;;;;;;;12.67;45.12;101469.94;5027378;28;19955;-52
2022/05/03 07:07:00;;;;;;;;;;;;;;;12.70;45.08;101481.16;5027206;28;19927;-50
2022/05/03 07:09:25;;;;;;;;;;;;;;;12.71;44.89;101476.72;5024001;28;19913;-49
2022/05/03 07:11:51;;;;;;;;;;;;;;;12.72;44.82;101479.31;5024645;28;19960;-53
2022/05/03 07:14:16;;;;;;;;;;;;;;;12.78;44.70;101484.22;5026400;28;19917;-52
2022/05/03 07:16:42;;;;;;;;;;;;;;;12.84;44.66;101474.28;5029587;28;19913;-52
2022/05/03 07:24:35;;;;;;;;;;;;;;;12.90;44.56;101476.59;5024818;28;19971;-50
2022/05/03 07:27:00;;;;;;;;;;;;;;;12.94;44.61;101478.97;5032674;28;20556;-51
2022/05/03 07:29:25;;;;;;;;;;;;;;;12.95;44.55;101477.16;5026443;28;20256;-53
2022/05/03 07:31:51;;;;;;;;;;;;;;;12.98;44.63;101479.63;5030989;28;20339;-50
2022/05/03 07:34:16;;;;;;;;;;;;;;;13.06;44.51;101484.47;5027352;28;19917;-50
2022/05/03 07:36:41;;;;;;;;;;;;;;;13.11;44.34;101491.22;5030419;28;19944;-54
2022/05/03 07:39:07;;;;;;;;;;;;;;;13.17;43.94;101483.88;5029169;28;20371;-49
2022/05/03 07:41:32;;;;;;;;;;;;;;;13.22;43.96;101480.03;5026763;28;19970;-51
2022/05/03 07:43:57;;;;;;;;;;;;;;;13.31;43.79;101486.59;5029723;28;20003;-49
2022/05/03 07:46:23;;;;;;;;;;;;;;;13.36;43.65;101488.97;5032341;28;19913;-53
2022/05/03 07:48:48;;;;;;;;;;;;;;;13.41;43.37;101485.13;5026060;28;19952;-54
2022/05/03 07:51:14;;;;;;;;;;;;;;;13.47;43.44;101483.09;5032407;28;19929;-49
2022/05/03 07:53:40;;;;;;;;;;;;;;;13.53;43.06;101490.69;5027345;28;19913;-51
2022/05/03 07:56:05;;;;;;;;;;;;;;;13.56;42.82;101501.06;5022752;28;19967;-49
2022/05/03 07:58:31;;;;;;;;;;;;;;;13.57;42.76;101486.88;5032434;28;20351;-49
2022/05/03 08:00:57;;;;;;;;;;;;;;;13.60;42.81;101499.94;5025267;28;19923;-49
2022/05/03 08:03:22;;;;;;;;;;;;;;;13.66;42.95;101499.59;5033020;28;19916;-53
2022/05/03 08:05:48;;;;;;;;;;;;;;;13.74;42.65;101498.28;5029936;28;20417;-50
2022/05/03 08:08:14;;;;;;;;;;;;;;;13.77;42.62;101490.16;5029712;28;19956;-49
2022/05/03 08:10:39;;;;;;;;;;;;;;;13.79;42.67;101506.78;5026333;28;19920;-52
2022/05/03 08:13:04;;;;;;;;;;;;;;;13.81;42.34;101507.56;5026903;28;19925;-53
2022/05/03 08:15:29;;;;;;;;;;;;;;;13.83;42.57;101503.03;5031302;28;20027;-52
2022/05/03 08:17:55;;;;;;;;;;;;;;;13.84;41.95;101504.75;5031756;28;19921;-54
2022/05/03 08:20:20;;;;;;;;;;;;;;;13.83;41.81;101489.81;5029409;28;19921;-49
2022/05/03 08:22:45;;;;;;;;;;;;;;;13.81;41.91;101504.91;5026028;28;19928;-52
2022/05/03 08:25:11;;;;;;;;;;;;;;;13.86;42.09;101497.53;5029308;28;20273;-53
2022/05/03 08:27:38;;;;;;;;;;;;;;;13.89;42.03;101502.66;5027911;28;19960;-49
2022/05/03 08:30:04;;;;;;;;;;;;;;;13.93;41.99;101508.59;5031963;28;20002;-54
2022/05/03 08:32:29;;;;;;;;;;;;;;;13.94;41.72;101503.25;5024680;28;19940;-53
2022/05/03 08:34:55;;;;;;;;;;;;;;;13.97;41.85;101508.34;5003589;28;20091;-50
2022/05/03 08:42:48;;;;;;;;;;;;;;;14.12;40.50;101500.44;5032135;28;19967;-52
2022/05/03 08:45:13;;;;;;;;;;;;;;;14.15;40.62;101500.22;5029367;28;19940;-52
2022/05/03 08:47:39;;;;;;;;;;;;;;;14.19;40.30;101509.69;5021604;28;20353;-52
2022/05/03 08:50:06;;;;;;;;;;;;;;;14.23;39.95;101505.03;5028928;28;20357;-49
2022/05/03 08:52:42;;;;;;;;;;;;;;;14.26;40.08;101503.09;5029645;28;19960;-50
2022/05/03 08:55:07;;;;;;;;;;;;;;;14.30;39.92;101507.22;5026194;28;20877;-51
2022/05/03 08:57:32;;;;;;;;;;;;;;;14.33;40.00;101504.41;5032369;28;20368;-56
2022/05/03 08:59:58;;;;;;;;;;;;;;;14.39;40.02;101504.97;5029395;28;19924;-49
2022/05/03 09:02:23;;;;;;;;;;;;;;;14.44;40.10;101501.09;5025007;28;20448;-55
2022/05/03 09:04:49;;;;;;;;;;;;;;;14.48;39.79;101499.09;5026406;28;19940;-54
2022/05/03 09:07:19;;;;;;;;;;;;;;;14.52;39.54;101500.63;5030002;28;19918;-51
2022/05/03 09:09:44;;;;;;;;;;;;;;;14.53;39.59;101502.31;5025282;28;19913;-51
2022/05/03 09:12:20;;;;;;;;;;;;;;;14.59;39.66;101507.25;5028285;28;19919;-55
2022/05/03 09:14:46;;;;;;;;;;;;;;;14.64;39.62;101505.13;5027028;28;20443;-55
2022/05/03 09:17:11;;;;;;;;;;;;;;;14.70;39.46;101503.09;5021324;28;19917;-49
2022/05/03 09:19:37;;;;;;;;;;;;;;;14.75;39.49;101500.97;5029651;28;19925;-50
2022/05/03 09:24:50;;;;;;;;;;;;;;;14.74;39.57;101497.50;5030335;28;20502;-50
2022/05/03 09:27:19;;;;;;;;;;;;;;;14.77;39.24;101489.34;5031296;28;19917;-49
2022/05/03 09:30:01;;;;;;;;;;;;;;;14.83;39.51;101498.72;5029214;28;19955;-49
2022/05/03 09:32:40;;;;;;;;;;;;;;;14.88;39.41;101507.22;5028536;28;20025;-55
2022/05/03 09:35:06;;;;;;;;;;;;;;;14.91;39.55;101496.41;5026735;28;19975;-51
2022/05/03 09:37:38;;;;;;;;;;;;;;;14.92;39.55;101508.72;5030974;28;19909;-49
2022/05/03 09:40:05;;;;;;;;;;;;;;;14.94;39.28;101498.03;5029836;28;19956;-50
2022/05/03 09:42:30;;;;;;;;;;;;;;;14.98;39.47;101504.81;5028584;28;19952;-50
2022/05/03 09:45:00;;;;;;;;;;;;;;;15.04;39.51;101500.94;5026707;28;19968;-51
2022/05/03 09:47:33;;;;;;;;;;;;;;;15.07;39.61;101501.59;5027934;28;19995;-49
2022/05/03 09:49:58;;;;;;;;;;;;;;;15.11;39.71;101502.22;5025665;28;19913;-49
2022/05/03 09:52:28;;;;;;;;;;;;;;;15.14;39.97;101502.03;5030667;28;19916;-50
2022/05/03 09:54:58;;;;;;;;;;;;;;;15.20;40.04;101493.66;5013533;28;19920;-56
2022/05/03 09:57:24;;;;;;;;;;;;;;;15.23;39.99;101496.13;5030579;28;20304;-51
2022/05/03 09:59:50;;;;;;;;;;;;;;;15.30;40.15;101496.56;5030921;28;19967;-54
2022/05/03 10:02:17;;;;;;;;;;;;;;;15.37;39.91;101491.72;5029820;28;19913;-54
2022/05/03 10:04:43;;;;;;;;;;;;;;;15.47;39.95;101492.81;5027620;28;19923;-56
2022/05/03 10:07:10;;;;;;;;;;;;;;;15.57;39.68;101502.81;5021474;28;19921;-51
2022/05/03 10:09:35;;;;;;;;;;;;;;;15.64;39.45;101498.81;5025370;28;19917;-55
2022/05/03 10:12:02;;;;;;;;;;;;;;;15.68;39.39;101501.13;5029008;28;19921;-50
2022/05/03 10:14:27;;;;;;;;;;;;;;;15.71;39.22;101497.41;5025179;28;20000;-49
2022/05/03 10:22:27;;;;;;;;;;;;;;;15.89;39.48;101490.03;4992886;28;20569;-51
2022/05/03 10:24:54;;;;;;;;;;;;;;;15.99;39.27;101487.59;5027906;28;20423;-53
2022/05/03 10:27:23;;;;;;;;;;;;;;;16.06;38.94;101488.88;5030496;28;19909;-53
2022/05/03 10:30:07;;;;;;;;;;;;;;;16.07;38.97;101482.63;5028376;28;19936;-51
2022/05/03 10:32:32;;;;;;;;;;;;;;;16.07;38.95;101479.97;5026185;28;19924;-55
2022/05/03 10:34:59;;;;;;;;;;;;;;;16.07;38.77;101490.59;5029685;28;19916;-53
2022/05/03 10:37:34;;;;;;;;;;;;;;;16.07;38.86;101485.28;5029913;28;19913;-52
2022/05/03 10:40:15;;;;;;;;;;;;;;;16.14;38.89;101491.84;5030345;28;19917;-52
2022/05/03 10:42:41;;;;;;;;;;;;;;;16.21;38.62;101492.25;5023662;28;19928;-52
2022/05/03 10:45:06;;;;;;;;;;;;;;;16.25;38.82;101491.09;5028208;28;19913;-53
2022/05/03 10:47:48;;;;;;;;;;;;;;;16.30;38.95;101491.63;5021405;28;20288;-50
2022/05/03 10:50:16;;;;;;;;;;;;;;;16.35;38.97;101499.28;5027530;28;19923;-54
2022/05/03 10:52:53;;;;;;;;;;;;;;;16.34;38.71;101489.63;5026658;28;19916;-53
2022/05/03 10:55:19;;;;;;;;;;;;;;;16.35;38.70;101485.13;5024342;28;19910;-51
2022/05/03 10:58:02;;;;;;;;;;;;;;;16.38;38.85;101484.94;5027634;28;20371;-53
2022/05/03 11:00:46;;;;;;;;;;;;;;;16.40;39.02;101475.03;5023929;28;20308;-53
2022/05/03 11:03:21;;;;;;;;;;;;;;;16.38;39.14;101483.13;5027127;28;20281;-49
2022/05/03 11:06:05;;;;;;;;;;;;;;;16.41;39.19;101480.22;5026647;28;19913;-53
2022/05/03 11:08:30;;;;;;;;;;;;;;;16.49;39.25;101484.16;5023898;28;19952;-53
2022/05/03 11:10:56;;;;;;;;;;;;;;;16.55;39.19;101481.09;5027497;28;19952;-53
2022/05/03 11:13:37;;;;;;;;;;;;;;;16.59;39.13;101471.91;5021429;28;19980;-52
2022/05/03 11:16:23;;;;;;;;;;;;;;;16.64;39.05;101480.41;5025675;28;20317;-49
2022/05/03 11:18:48;;;;;;;;;;;;;;;16.67;39.03;101471.38;5026484;28;19913;-53
2022/05/03 11:21:14;;;;;;;;;;;;;;;16.68;39.02;101463.31;5018145;28;19936;-56
2022/05/03 11:23:47;;;;;;;;;;;;;;;16.75;39.15;101472.50;5018565;28;19967;-50
2022/05/03 11:26:12;;;;;;;;;;;;;;;16.76;38.72;101471.56;5013907;28;19917;-55
2022/05/03 11:28:37;;;;;;;;;;;;;;;16.75;38.79;101464.53;5012852;28;19931;-57
2022/05/03 11:31:02;;;;;;;;;;;;;;;16.72;38.58;101470.06;5015504;28;19925;-48
2022/05/03 11:33:28;;;;;;;;;;;;;;;16.74;38.67;101478.78;5019416;28;19991;-53
2022/05/03 11:35:54;;;;;;;;;;;;;;;16.72;38.58;101469.25;5019456;28;19916;-51
2022/05/03 11:38:19;;;;;;;;;;;;;;;16.73;38.63;101476.25;5021628;28;19974;-51
2022/05/03 11:40:45;;;;;;;;;;;;;;;16.79;38.48;101464.31;5029123;28;19921;-49
2022/05/03 11:43:13;;;;;;;;;;;;;;;16.86;38.56;101462.94;5022540;28;19925;-50
2022/05/03 11:45:38;;;;;;;;;;;;;;;16.94;38.38;101476.50;5016133;28;20911;-54
2022/05/03 11:48:03;;;;;;;;;;;;;;;16.95;38.03;101464.94;5011030;28;20070;-55
2022/05/03 11:56:01;;;;;;;;;;;;;;;17.03;38.19;101467.03;5024614;28;19945;-56
2022/05/03 11:58:30;;;;;;;;;;;;;;;17.06;38.26;101470.31;5019604;28;19987;-54
2022/05/03 12:00:55;;;;;;;;;;;;;;;17.09;37.99;101457.75;5015541;28;19921;-50
2022/05/03 12:03:21;;;;;;;;;;;;;;;17.11;38.19;101458.47;5019333;28;19921;-49
2022/05/03 12:06:00;;;;;;;;;;;;;;;17.14;38.13;101460.94;5022471;28;19979;-55
2022/05/03 12:08:26;;;;;;;;;;;;;;;17.18;38.44;101449.94;5024570;28;19921;-51
2022/05/03 12:10:51;;;;;;;;;;;;;;;17.20;38.63;101447.16;5028884;28;20004;-51
2022/05/03 12:13:22;;;;;;;;;;;;;;;17.23;38.59;101457.56;5031457;28;19921;-54
2022/05/03 12:15:49;;;;;;;;;;;;;;;17.23;38.20;101462.88;5029501;28;20388;-52
2022/05/03 12:18:23;;;;;;;;;;;;;;;17.23;38.41;101470.88;5028602;28;19920;-51
2022/05/03 12:20:51;;;;;;;;;;;;;;;17.25;38.25;101458.31;5030348;28;20055;-55
2022/05/03 12:23:21;;;;;;;;;;;;;;;17.27;38.10;101456.38;5029184;28;19921;-50
2022/05/03 12:25:51;;;;;;;;;;;;;;;17.31;38.16;101460.53;5030471;28;19948;-52
2022/05/03 12:28:17;;;;;;;;;;;;;;;17.31;37.74;101447.22;5025847;28;19917;-50
2022/05/03 12:30:42;;;;;;;;;;;;;;;17.31;37.98;101449.88;5022826;28;19913;-53
2022/05/03 12:33:09;;;;;;;;;;;;;;;17.27;38.10;101445.75;5017520;28;19924;-51
2022/05/03 12:35:35;;;;;;;;;;;;;;;17.30;38.13;101453.50;5025840;28;19927;-56
2022/05/03 12:38:09;;;;;;;;;;;;;;;17.34;38.18;101446.97;5024632;28;19920;-52
2022/05/03 12:40:42;;;;;;;;;;;;;;;17.34;38.09;101449.63;5016738;28;19921;-50
2022/05/03 12:43:14;;;;;;;;;;;;;;;17.35;38.07;101453.97;5022448;28;19912;-50
2022/05/03 12:45:40;;;;;;;;;;;;;;;17.37;38.23;101451.22;5023376;28;19917;-53
2022/05/03 12:48:06;;;;;;;;;;;;;;;17.42;38.62;101453.53;5024225;28;19927;-58
2022/05/03 12:50:31;;;;;;;;;;;;;;;17.42;38.51;101450.88;5025389;28;20347;-50
2022/05/03 12:52:57;;;;;;;;;;;;;;;17.38;38.81;101447.59;5019570;28;19929;-52
2022/05/03 12:55:23;;;;;;;;;;;;;;;17.23;39.68;101449.59;5027375;28;20067;-59
2022/05/03 13:00:36;;;;;;;;;;;;;;;17.06;40.15;101445.53;5022609;28;20236;-52
2022/05/03 13:03:03;;;;;;;;;;;;;;;17.05;40.25;101454.47;5021120;28;19944;-53
2022/05/03 13:05:29;;;;;;;;;;;;;;;17.03;40.45;101451.91;5021550;28;20027;-54
2022/05/03 13:07:54;;;;;;;;;;;;;;;16.99;40.64;101458.44;5022220;28;21029;-50
2022/05/03 13:10:19;;;;;;;;;;;;;;;16.94;40.82;101455.22;5023260;28;20386;-53
2022/05/03 13:12:45;;;;;;;;;;;;;;;16.90;40.84;101451.09;5021463;28;19925;-54